sensor_id;sensor_type;location;lat;lon;timestamp;P1;durP1;ratioP1;P2;durP2;ratioP2
61739;SDS011;47645;45.288;12.038;2023-07-13T00:04:42;14.7;;;3.5;;
61739;SDS011;47645;45.288;12.038;2023-07-13T00:14:44;13.3;;;3.0;;
61739;SDS011;47645;45.288;12.038;2023-07-13T00:24:46;16.4;;;3.3;;
61739;SDS011;47645;45.288;12.038;2023-07-13T00:34:48;14.6;;;3.2;;
61739;SDS011;47645;45.288;12.038;2023-07-13T00:45:07;10.1;;;3.2;;
61739;SDS011;47645;45.288;12.038;2023-07-13T00:54:51;8.3;;;2.8;;
61739;SDS011;47645;45.288;12.038;2023-07-13T01:04:52;7.3;;;2.5;;
61739;SDS011;47645;45.288;12.038;2023-07-13T01:14:57;7.6;;;2.3;;
61739;SDS011;47645;45.288;12.038;2023-07-13T01:24:56;5.7;;;1.9;;
61739;SDS011;47645;45.288;12.038;2023-07-13T01:34:57;4.6;;;1.8;;
61739;SDS011;47645;45.288;12.038;2023-07-13T01:44:59;3.8;;;1.8;;
61739;SDS011;47645;45.288;12.038;2023-07-13T01:55:00;3.8;;;1.6;;
61739;SDS011;47645;45.288;12.038;2023-07-13T02:05:02;5.5;;;1.1;;
61739;SDS011;47645;45.288;12.038;2023-07-13T02:15:04;4.5;;;1.7;;
61739;SDS011;47645;45.288;12.038;2023-07-13T02:20:05;5.8;;;1.4;;
61739;SDS011;47645;45.288;12.038;2023-07-13T02:30:07;5.5;;;1.7;;
61739;SDS011;47645;45.288;12.038;2023-07-13T02:40:09;4.3;;;1.6;;
61739;SDS011;47645;45.288;12.038;2023-07-13T02:50:09;5.7;;;1.4;;
61739;SDS011;47645;45.288;12.038;2023-07-13T03:00:11;5.0;;;1.6;;
61739;SDS011;47645;45.288;12.038;2023-07-13T03:10:12;3.9;;;1.6;;
61739;SDS011;47645;45.288;12.038;2023-07-13T03:20:14;3.3;;;1.6;;
61739;SDS011;47645;45.288;12.038;2023-07-13T03:30:15;3.3;;;1.3;;
61739;SDS011;47645;45.288;12.038;2023-07-13T03:40:17;5.0;;;1.5;;
61739;SDS011;47645;45.288;12.038;2023-07-13T03:50:18;3.4;;;1.2;;
61739;SDS011;47645;45.288;12.038;2023-07-13T04:00:20;5.5;;;0.9;;
61739;SDS011;47645;45.288;12.038;2023-07-13T04:10:21;3.3;;;1.1;;
61739;SDS011;47645;45.288;12.038;2023-07-13T04:20:24;3.9;;;1.2;;
61739;SDS011;47645;45.288;12.038;2023-07-13T04:30:24;6.9;;;1.3;;
61739;SDS011;47645;45.288;12.038;2023-07-13T04:40:26;3.4;;;1.2;;
61739;SDS011;47645;45.288;12.038;2023-07-13T04:50:27;5.3;;;1.4;;
61739;SDS011;47645;45.288;12.038;2023-07-13T05:00:29;4.8;;;1.4;;
61739;SDS011;47645;45.288;12.038;2023-07-13T05:10:31;6.1;;;1.6;;
61739;SDS011;47645;45.288;12.038;2023-07-13T05:20:32;4.0;;;1.4;;
61739;SDS011;47645;45.288;12.038;2023-07-13T05:30:34;6.0;;;1.7;;
61739;SDS011;47645;45.288;12.038;2023-07-13T05:40:35;4.1;;;1.8;;
61739;SDS011;47645;45.288;12.038;2023-07-13T05:50:36;5.0;;;1.7;;
61739;SDS011;47645;45.288;12.038;2023-07-13T06:00:38;4.2;;;1.7;;
61739;SDS011;47645;45.288;12.038;2023-07-13T06:10:39;5.2;;;1.6;;
61739;SDS011;47645;45.288;12.038;2023-07-13T06:20:41;4.6;;;1.7;;
61739;SDS011;47645;45.288;12.038;2023-07-13T06:30:42;5.0;;;2.1;;
61739;SDS011;47645;45.288;12.038;2023-07-13T06:40:44;5.5;;;2.0;;
61739;SDS011;47645;45.288;12.038;2023-07-13T06:50:45;8.8;;;2.0;;
61739;SDS011;47645;45.288;12.038;2023-07-13T07:00:49;6.5;;;1.7;;
61739;SDS011;47645;45.288;12.038;2023-07-13T07:10:54;7.1;;;2.1;;
61739;SDS011;47645;45.288;12.038;2023-07-13T07:20:50;5.0;;;2.1;;
61739;SDS011;47645;45.288;12.038;2023-07-13T07:30:52;6.2;;;2.3;;
61739;SDS011;47645;45.288;12.038;2023-07-13T07:40:53;5.4;;;1.9;;
61739;SDS011;47645;45.288;12.038;2023-07-13T07:50:54;6.3;;;2.2;;
61739;SDS011;47645;45.288;12.038;2023-07-13T08:01:01;8.1;;;2.2;;
61739;SDS011;47645;45.288;12.038;2023-07-13T08:10:58;8.4;;;2.0;;
61739;SDS011;47645;45.288;12.038;2023-07-13T08:21:02;6.9;;;1.8;;
61739;SDS011;47645;45.288;12.038;2023-07-13T08:31:01;10.9;;;3.2;;
61739;SDS011;47645;45.288;12.038;2023-07-13T08:41:09;6.9;;;2.4;;
61739;SDS011;47645;45.288;12.038;2023-07-13T08:51:07;11.1;;;3.7;;
61739;SDS011;47645;45.288;12.038;2023-07-13T09:01:08;8.4;;;2.3;;
61739;SDS011;47645;45.288;12.038;2023-07-13T09:11:12;7.9;;;2.3;;
61739;SDS011;47645;45.288;12.038;2023-07-13T09:21:10;10.8;;;2.4;;
61739;SDS011;47645;45.288;12.038;2023-07-13T09:31:13;6.7;;;2.1;;
61739;SDS011;47645;45.288;12.038;2023-07-13T09:41:15;8.1;;;2.3;;
61739;SDS011;47645;45.288;12.038;2023-07-13T09:51:14;8.6;;;2.8;;
61739;SDS011;47645;45.288;12.038;2023-07-13T10:01:15;4.9;;;2.1;;
61739;SDS011;47645;45.288;12.038;2023-07-13T10:11:18;5.4;;;2.0;;
61739;SDS011;47645;45.288;12.038;2023-07-13T10:21:19;10.8;;;2.8;;
61739;SDS011;47645;45.288;12.038;2023-07-13T10:31:20;9.6;;;2.7;;
61739;SDS011;47645;45.288;12.038;2023-07-13T10:41:21;5.8;;;2.0;;
61739;SDS011;47645;45.288;12.038;2023-07-13T10:51:22;8.5;;;2.2;;
61739;SDS011;47645;45.288;12.038;2023-07-13T11:01:24;6.7;;;2.0;;
61739;SDS011;47645;45.288;12.038;2023-07-13T11:11:42;6.0;;;2.1;;
61739;SDS011;47645;45.288;12.038;2023-07-13T11:21:28;5.1;;;1.5;;
61739;SDS011;47645;45.288;12.038;2023-07-13T11:31:29;6.8;;;1.8;;
61739;SDS011;47645;45.288;12.038;2023-07-13T11:41:31;9.4;;;2.6;;
61739;SDS011;47645;45.288;12.038;2023-07-13T11:51:33;7.9;;;2.1;;
61739;SDS011;47645;45.288;12.038;2023-07-13T12:01:34;7.7;;;2.7;;
61739;SDS011;47645;45.288;12.038;2023-07-13T12:11:37;5.7;;;2.4;;
61739;SDS011;47645;45.288;12.038;2023-07-13T12:21:38;7.9;;;2.2;;
61739;SDS011;47645;45.288;12.038;2023-07-13T12:31:40;6.8;;;2.8;;
61739;SDS011;47645;45.288;12.038;2023-07-13T12:41:42;5.2;;;2.0;;
61739;SDS011;47645;45.288;12.038;2023-07-13T12:51:45;6.6;;;1.8;;
61739;SDS011;47645;45.288;12.038;2023-07-13T13:01:49;7.0;;;2.2;;
61739;SDS011;47645;45.288;12.038;2023-07-13T13:11:48;7.7;;;2.8;;
61739;SDS011;47645;45.288;12.038;2023-07-13T13:21:53;8.3;;;2.3;;
61739;SDS011;47645;45.288;12.038;2023-07-13T13:31:53;8.9;;;2.5;;
61739;SDS011;47645;45.288;12.038;2023-07-13T13:41:54;8.5;;;3.3;;
61739;SDS011;47645;45.288;12.038;2023-07-13T13:51:56;10.3;;;3.2;;
61739;SDS011;47645;45.288;12.038;2023-07-13T14:02:00;10.9;;;3.3;;
61739;SDS011;47645;45.288;12.038;2023-07-13T14:12:00;8.8;;;2.9;;
61739;SDS011;47645;45.288;12.038;2023-07-13T14:22:03;8.8;;;2.7;;
61739;SDS011;47645;45.288;12.038;2023-07-13T14:32:07;11.5;;;3.2;;
61739;SDS011;47645;45.288;12.038;2023-07-13T14:42:08;11.8;;;3.6;;
61739;SDS011;47645;45.288;12.038;2023-07-13T14:52:11;10.8;;;3.1;;
61739;SDS011;47645;45.288;12.038;2023-07-13T15:02:13;10.9;;;2.8;;
61739;SDS011;47645;45.288;12.038;2023-07-13T15:12:13;10.2;;;3.5;;
61739;SDS011;47645;45.288;12.038;2023-07-13T15:22:15;11.2;;;3.1;;
61739;SDS011;47645;45.288;12.038;2023-07-13T15:32:19;6.7;;;2.6;;
61739;SDS011;47645;45.288;12.038;2023-07-13T15:42:20;7.3;;;2.9;;
61739;SDS011;47645;45.288;12.038;2023-07-13T15:52:22;7.3;;;2.7;;
61739;SDS011;47645;45.288;12.038;2023-07-13T16:02:23;13.6;;;4.1;;
61739;SDS011;47645;45.288;12.038;2023-07-13T16:12:25;8.3;;;3.5;;
61739;SDS011;47645;45.288;12.038;2023-07-13T16:22:27;11.0;;;3.2;;
61739;SDS011;47645;45.288;12.038;2023-07-13T16:32:29;8.7;;;2.9;;
61739;SDS011;47645;45.288;12.038;2023-07-13T16:42:31;8.1;;;2.7;;
61739;SDS011;47645;45.288;12.038;2023-07-13T16:52:33;6.2;;;2.9;;
61739;SDS011;47645;45.288;12.038;2023-07-13T17:02:36;10.8;;;2.9;;
61739;SDS011;47645;45.288;12.038;2023-07-13T17:12:36;8.1;;;2.5;;
61739;SDS011;47645;45.288;12.038;2023-07-13T17:22:39;7.4;;;3.0;;
61739;SDS011;47645;45.288;12.038;2023-07-13T17:32:41;7.8;;;2.5;;
61739;SDS011;47645;45.288;12.038;2023-07-13T17:42:43;8.2;;;2.4;;
61739;SDS011;47645;45.288;12.038;2023-07-13T17:52:46;5.4;;;2.7;;
61739;SDS011;47645;45.288;12.038;2023-07-13T18:02:46;12.0;;;2.6;;
61739;SDS011;47645;45.288;12.038;2023-07-13T18:12:51;5.4;;;2.5;;
61739;SDS011;47645;45.288;12.038;2023-07-13T18:22:51;9.5;;;3.2;;
61739;SDS011;47645;45.288;12.038;2023-07-13T18:32:54;6.7;;;2.9;;
61739;SDS011;47645;45.288;12.038;2023-07-13T18:42:55;7.6;;;2.6;;
61739;SDS011;47645;45.288;12.038;2023-07-13T18:52:56;6.1;;;2.2;;
61739;SDS011;47645;45.288;12.038;2023-07-13T19:02:58;7.1;;;2.3;;
61739;SDS011;47645;45.288;12.038;2023-07-13T19:13:00;7.7;;;2.3;;
61739;SDS011;47645;45.288;12.038;2023-07-13T19:23:02;6.2;;;2.0;;
61739;SDS011;47645;45.288;12.038;2023-07-13T19:33:05;4.9;;;2.1;;
61739;SDS011;47645;45.288;12.038;2023-07-13T19:43:10;5.7;;;2.3;;
61739;SDS011;47645;45.288;12.038;2023-07-13T19:53:08;6.4;;;2.3;;
61739;SDS011;47645;45.288;12.038;2023-07-13T20:03:09;6.6;;;2.7;;
61739;SDS011;47645;45.288;12.038;2023-07-13T20:13:12;5.3;;;2.6;;
61739;SDS011;47645;45.288;12.038;2023-07-13T20:23:12;6.4;;;2.3;;
61739;SDS011;47645;45.288;12.038;2023-07-13T20:33:14;5.1;;;2.1;;
61739;SDS011;47645;45.288;12.038;2023-07-13T20:43:15;4.6;;;2.2;;
61739;SDS011;47645;45.288;12.038;2023-07-13T20:53:17;6.1;;;2.4;;
61739;SDS011;47645;45.288;12.038;2023-07-13T21:03:20;6.2;;;2.5;;
61739;SDS011;47645;45.288;12.038;2023-07-13T21:13:21;8.5;;;2.8;;
61739;SDS011;47645;45.288;12.038;2023-07-13T21:23:25;7.3;;;2.5;;
61739;SDS011;47645;45.288;12.038;2023-07-13T21:33:24;5.8;;;2.2;;
61739;SDS011;47645;45.288;12.038;2023-07-13T21:43:25;4.4;;;2.4;;
61739;SDS011;47645;45.288;12.038;2023-07-13T21:53:27;5.7;;;2.6;;
61739;SDS011;47645;45.288;12.038;2023-07-13T22:03:30;6.9;;;2.7;;
61739;SDS011;47645;45.288;12.038;2023-07-13T22:13:30;8.8;;;2.7;;
61739;SDS011;47645;45.288;12.038;2023-07-13T22:23:32;7.3;;;3.0;;
61739;SDS011;47645;45.288;12.038;2023-07-13T22:33:33;4.7;;;2.1;;
61739;SDS011;47645;45.288;12.038;2023-07-13T22:43:35;9.3;;;3.8;;
61739;SDS011;47645;45.288;12.038;2023-07-13T22:53:36;4.8;;;2.8;;
61739;SDS011;47645;45.288;12.038;2023-07-13T23:03:38;8.4;;;3.4;;
61739;SDS011;47645;45.288;12.038;2023-07-13T23:13:40;8.6;;;3.9;;
61739;SDS011;47645;45.288;12.038;2023-07-13T23:23:41;8.4;;;3.6;;
61739;SDS011;47645;45.288;12.038;2023-07-13T23:33:43;7.0;;;3.0;;
61739;SDS011;47645;45.288;12.038;2023-07-13T23:43:45;6.5;;;2.8;;
61739;SDS011;47645;45.288;12.038;2023-07-13T23:53:46;8.4;;;3.3;;
